createdAt,value
2022-10-30T00:00:35.322Z,11.30
2022-10-30T00:03:04.814Z,11.20
2022-10-30T00:05:32.855Z,11.20
2022-10-30T00:08:01.208Z,11.20
2022-10-30T00:10:29.445Z,11.10
2022-10-30T00:12:57.975Z,11.10
2022-10-30T00:15:25.921Z,11.00
2022-10-30T00:17:54.884Z,11.10
2022-10-30T00:20:24.460Z,11.20
2022-10-30T00:22:52.643Z,11.40
2022-10-30T00:25:20.719Z,11.60
2022-10-30T00:27:48.678Z,11.70
2022-10-30T00:30:17.379Z,11.70
2022-10-30T00:32:45.331Z,11.80
2022-10-30T00:35:13.385Z,11.80
2022-10-30T00:37:42.724Z,11.80
2022-10-30T00:40:16.935Z,11.60
2022-10-30T00:42:45.502Z,11.60
2022-10-30T00:45:15.085Z,11.70
2022-10-30T00:47:46.214Z,11.70
2022-10-30T00:50:17.856Z,11.60
2022-10-30T00:52:52.169Z,11.40
2022-10-30T00:55:23.712Z,11.40
2022-10-30T00:57:53.169Z,11.50
2022-10-30T01:00:23.254Z,11.40
2022-10-30T01:02:52.807Z,11.30
2022-10-30T01:05:26.073Z,11.30
2022-10-30T01:07:55.984Z,11.20
2022-10-30T01:10:24.661Z,11.10
2022-10-30T01:12:57.007Z,11.10
2022-10-30T01:15:31.446Z,11.00
2022-10-30T01:18:10.066Z,11.00
2022-10-30T01:20:53.127Z,10.90
2022-10-30T01:23:36.498Z,10.90
2022-10-30T01:26:13.073Z,10.80
2022-10-30T01:28:58.476Z,10.70
2022-10-30T01:31:42.116Z,10.70
2022-10-30T01:34:18.063Z,10.50
2022-10-30T01:36:52.936Z,10.50
2022-10-30T01:39:25.324Z,10.40
2022-10-30T01:41:53.327Z,10.40
2022-10-30T01:44:26.386Z,10.40
2022-10-30T01:47:15.805Z,10.30
2022-10-30T01:50:10.595Z,10.20
2022-10-30T01:52:46.336Z,10.20
2022-10-30T01:55:24.467Z,10.10
2022-10-30T01:57:59.276Z,10.10
2022-10-30T02:00:28.532Z,10.10
2022-10-30T02:02:57.075Z,10.00
2022-10-30T02:05:39.578Z,10.00
2022-10-30T02:08:07.964Z,10.10
2022-10-30T02:10:42.246Z,9.80
2022-10-30T02:13:10.417Z,9.80
2022-10-30T02:15:39.309Z,9.70
2022-10-30T02:18:07.395Z,9.70
2022-10-30T02:20:37.397Z,9.70
2022-10-30T02:23:06.841Z,9.70
2022-10-30T02:25:36.459Z,9.70
2022-10-30T02:28:04.711Z,9.50
2022-10-30T02:30:32.871Z,9.60
2022-10-30T02:33:03.061Z,9.60
2022-10-30T02:35:31.799Z,9.60
2022-10-30T02:38:01.336Z,9.60
2022-10-30T02:40:29.597Z,9.50
2022-10-30T02:42:58.153Z,9.40
2022-10-30T02:45:26.146Z,9.40
2022-10-30T02:47:54.208Z,9.40
2022-10-30T02:50:22.848Z,9.30
2022-10-30T02:52:52.835Z,9.40
2022-10-30T02:55:22.238Z,9.40
2022-10-30T02:57:50.464Z,9.40
2022-10-30T03:00:19.195Z,9.30
2022-10-30T03:02:47.380Z,9.30
2022-10-30T03:05:15.507Z,9.20
2022-10-30T03:07:43.433Z,9.10
2022-10-30T03:10:11.432Z,9.20
2022-10-30T03:12:40.742Z,9.30
2022-10-30T03:15:10.318Z,9.30
2022-10-30T03:17:38.474Z,9.20
2022-10-30T03:20:07.503Z,9.10
2022-10-30T03:22:35.508Z,9.00
2022-10-30T03:25:03.636Z,9.00
2022-10-30T03:27:31.616Z,9.00
2022-10-30T03:30:01.575Z,9.00
2022-10-30T03:32:30.605Z,8.90
2022-10-30T03:35:01.857Z,8.90
2022-10-30T03:37:29.861Z,8.90
2022-10-30T03:39:58.053Z,9.00
2022-10-30T03:42:26.095Z,9.10
2022-10-30T03:44:54.051Z,9.10
2022-10-30T03:47:23.429Z,9.10
2022-10-30T03:49:51.425Z,9.10
2022-10-30T03:52:23.144Z,9.20
2022-10-30T03:54:53.065Z,9.30
2022-10-30T03:57:21.972Z,9.30
2022-10-30T04:00:07.365Z,9.40
2022-10-30T04:02:57.715Z,9.40
2022-10-30T04:05:28.877Z,9.40
2022-10-30T04:08:00.210Z,9.40
2022-10-30T04:10:30.438Z,9.30
2022-10-30T04:13:02.565Z,9.40
2022-10-30T04:15:31.035Z,9.40
2022-10-30T04:18:01.720Z,9.40
2022-10-30T04:20:31.377Z,9.40
2022-10-30T04:23:00.517Z,9.40
2022-10-30T04:25:30.128Z,9.50
2022-10-30T04:28:01.196Z,9.50
2022-10-30T04:30:33.994Z,9.50
2022-10-30T04:33:05.678Z,9.40
2022-10-30T04:35:37.531Z,9.40
2022-10-30T04:38:11.089Z,9.40
2022-10-30T04:40:40.778Z,9.40
2022-10-30T04:43:10.875Z,9.50
2022-10-30T04:45:40.383Z,9.50
2022-10-30T04:48:14.390Z,9.60
2022-10-30T04:50:44.318Z,9.60
2022-10-30T04:53:17.809Z,9.70
2022-10-30T04:55:48.718Z,9.70
2022-10-30T04:58:17.754Z,9.70
2022-10-30T05:00:50.254Z,9.70
2022-10-30T05:03:23.212Z,9.70
2022-10-30T05:05:59.117Z,9.70
2022-10-30T05:08:27.259Z,9.70
2022-10-30T05:10:55.827Z,9.70
2022-10-30T05:13:24.353Z,9.70
2022-10-30T05:15:55.562Z,9.60
2022-10-30T05:18:25.787Z,9.60
2022-10-30T05:20:54.189Z,9.50
2022-10-30T05:23:23.951Z,9.50
2022-10-30T05:25:52.819Z,9.50
2022-10-30T05:28:21.695Z,9.40
2022-10-30T05:30:56.000Z,9.40
2022-10-30T05:33:48.235Z,9.40
2022-10-30T05:36:16.241Z,9.40
2022-10-30T05:38:46.566Z,9.30
2022-10-30T05:41:22.373Z,9.30
2022-10-30T05:43:50.380Z,9.30
2022-10-30T05:46:18.595Z,9.40
2022-10-30T05:48:49.109Z,9.40
2022-10-30T05:51:17.210Z,9.50
2022-10-30T05:53:52.103Z,9.50
2022-10-30T05:56:22.653Z,9.50
2022-10-30T05:58:51.264Z,9.60
2022-10-30T06:01:19.399Z,9.60
2022-10-30T06:03:53.605Z,9.60
2022-10-30T06:06:21.911Z,9.60
2022-10-30T06:08:58.857Z,9.70
2022-10-30T06:11:37.155Z,9.80
2022-10-30T06:14:05.295Z,9.90
2022-10-30T06:16:47.186Z,10.00
2022-10-30T06:19:36.771Z,10.20
2022-10-30T06:22:27.825Z,10.20
2022-10-30T06:25:01.573Z,10.30
2022-10-30T06:27:48.173Z,10.40
2022-10-30T06:30:16.207Z,10.60
2022-10-30T06:32:44.396Z,10.70
2022-10-30T06:35:13.754Z,10.70
2022-10-30T06:37:47.391Z,10.80
2022-10-30T06:40:17.376Z,10.90
2022-10-30T06:43:03.184Z,11.00
2022-10-30T06:45:37.469Z,11.20
2022-10-30T06:48:05.789Z,11.30
2022-10-30T06:50:40.999Z,11.40
2022-10-30T06:53:09.415Z,11.40
2022-10-30T06:55:38.511Z,11.50
2022-10-30T06:58:42.196Z,11.50
2022-10-30T07:01:13.961Z,11.60
2022-10-30T07:04:00.751Z,11.60
2022-10-30T07:06:30.875Z,11.60
2022-10-30T07:09:00.402Z,11.70
2022-10-30T07:11:28.575Z,11.90
2022-10-30T07:14:18.666Z,12.20
2022-10-30T07:17:09.602Z,12.50
2022-10-30T07:19:38.678Z,12.90
2022-10-30T07:22:08.837Z,13.10
2022-10-30T07:24:39.696Z,13.60
2022-10-30T07:27:19.268Z,14.10
2022-10-30T07:29:54.814Z,14.20
2022-10-30T07:32:43.310Z,14.40
2022-10-30T07:35:15.818Z,14.70
2022-10-30T07:38:06.897Z,15.00
2022-10-30T07:40:45.119Z,15.40
2022-10-30T07:43:29.664Z,15.80
2022-10-30T07:46:23.442Z,16.40
2022-10-30T07:49:09.948Z,17.60
2022-10-30T07:51:43.204Z,18.70
2022-10-30T07:54:14.860Z,19.50
2022-10-30T07:56:43.578Z,20.40
2022-10-30T07:59:20.706Z,21.40
2022-10-30T08:02:07.518Z,22.30
2022-10-30T08:04:50.934Z,22.80
2022-10-30T08:07:49.766Z,23.20
2022-10-30T08:10:19.294Z,23.60
2022-10-30T08:12:48.228Z,23.60
2022-10-30T08:15:16.379Z,23.80
2022-10-30T08:17:45.528Z,24.20
2022-10-30T08:20:16.376Z,24.80
2022-10-30T08:22:48.463Z,25.50
2022-10-30T08:25:17.977Z,26.70
2022-10-30T08:27:56.201Z,27.40
2022-10-30T08:30:27.928Z,27.70
2022-10-30T08:33:01.600Z,27.90
2022-10-30T08:35:50.408Z,28.20
2022-10-30T08:38:19.416Z,28.50
2022-10-30T08:40:55.482Z,29.20
2022-10-30T08:43:26.606Z,29.40
2022-10-30T08:45:54.677Z,28.90
2022-10-30T08:48:23.416Z,29.80
2022-10-30T08:50:51.717Z,30.40
2022-10-30T08:53:28.322Z,30.30
2022-10-30T08:55:56.730Z,29.90
2022-10-30T08:58:35.697Z,30.00
2022-10-30T09:01:04.177Z,30.40
2022-10-30T09:04:07.840Z,31.10
2022-10-30T09:06:55.729Z,31.40
2022-10-30T09:09:23.717Z,32.20
2022-10-30T09:11:54.845Z,32.20
2022-10-30T09:14:25.464Z,32.60
2022-10-30T09:16:55.106Z,32.60
2022-10-30T09:19:24.310Z,32.00
2022-10-30T09:21:52.684Z,32.30
2022-10-30T09:24:21.978Z,32.60
2022-10-30T09:26:49.911Z,33.60
2022-10-30T09:29:29.325Z,34.00
2022-10-30T09:32:00.486Z,34.50
2022-10-30T09:34:32.100Z,34.90
2022-10-30T09:37:05.447Z,35.00
2022-10-30T09:39:37.494Z,35.20
2022-10-30T09:42:21.519Z,35.10
2022-10-30T09:48:20.474Z,34.40
2022-10-30T09:51:09.561Z,34.10
2022-10-30T09:53:50.315Z,34.60
2022-10-30T09:56:32.763Z,33.90
2022-10-30T09:59:11.346Z,33.30
2022-10-30T10:01:48.963Z,31.80
2022-10-30T10:04:27.004Z,32.60
2022-10-30T10:07:08.565Z,33.00
2022-10-30T10:09:53.530Z,33.10
2022-10-30T10:12:43.735Z,34.00
2022-10-30T10:15:17.867Z,34.60
2022-10-30T10:17:47.746Z,34.70
2022-10-30T10:20:25.577Z,34.30
2022-10-30T10:22:53.617Z,34.70
2022-10-30T10:25:22.416Z,33.80
2022-10-30T10:28:00.820Z,33.50
2022-10-30T10:30:35.544Z,34.10
2022-10-30T10:33:19.731Z,33.40
2022-10-30T10:35:58.502Z,33.90
2022-10-30T10:38:40.287Z,34.70
2022-10-30T10:41:19.742Z,35.20
2022-10-30T10:44:06.450Z,34.00
2022-10-30T10:46:52.516Z,34.60
2022-10-30T10:49:39.016Z,34.70
2022-10-30T10:52:12.886Z,33.60
2022-10-30T10:54:44.685Z,34.00
2022-10-30T10:57:18.490Z,34.30
2022-10-30T10:59:50.414Z,33.50
2022-10-30T11:02:35.747Z,34.20
2022-10-30T11:05:13.651Z,33.80
2022-10-30T11:07:48.477Z,32.50
2022-10-30T11:10:18.602Z,32.80
2022-10-30T11:12:46.656Z,32.80
2022-10-30T11:15:24.868Z,32.70
2022-10-30T11:17:59.836Z,32.30
2022-10-30T11:20:37.413Z,31.70
2022-10-30T11:23:25.656Z,30.60
2022-10-30T11:25:53.614Z,31.00
2022-10-30T11:28:37.795Z,31.20
2022-10-30T11:31:23.710Z,31.10
2022-10-30T11:33:52.398Z,31.10
2022-10-30T11:36:24.493Z,31.10
2022-10-30T11:38:53.088Z,31.20
2022-10-30T11:41:21.794Z,31.10
2022-10-30T11:43:50.574Z,31.20
2022-10-30T11:46:24.401Z,32.20
2022-10-30T11:48:55.009Z,32.30
2022-10-30T11:51:40.518Z,31.40
2022-10-30T11:54:18.884Z,31.80
2022-10-30T11:56:49.278Z,31.70
2022-10-30T11:59:20.569Z,31.30
2022-10-30T12:02:00.417Z,30.40
2022-10-30T12:04:32.569Z,29.80
2022-10-30T12:07:21.467Z,29.50
2022-10-30T12:09:49.775Z,29.40
2022-10-30T12:12:24.329Z,28.90
2022-10-30T12:14:53.932Z,28.50
2022-10-30T12:17:23.549Z,28.10
2022-10-30T12:19:54.554Z,27.70
2022-10-30T12:22:30.319Z,27.70
2022-10-30T12:25:00.026Z,27.40
2022-10-30T12:27:28.486Z,26.90
2022-10-30T12:30:08.976Z,26.80
2022-10-30T12:32:46.802Z,27.10
2022-10-30T12:35:28.381Z,26.70
2022-10-30T12:38:00.217Z,26.30
2022-10-30T12:40:32.199Z,26.40
2022-10-30T12:43:06.112Z,26.10
2022-10-30T12:45:40.005Z,26.30
2022-10-30T12:48:16.969Z,26.00
2022-10-30T12:50:55.409Z,26.10
2022-10-30T12:53:30.235Z,26.10
2022-10-30T12:56:02.826Z,26.00
2022-10-30T12:58:37.477Z,26.00
2022-10-30T13:01:14.197Z,26.20
2022-10-30T13:03:47.388Z,25.80
2022-10-30T13:06:19.986Z,25.70
2022-10-30T13:09:03.759Z,25.70
2022-10-30T13:11:40.179Z,25.90
2022-10-30T13:14:15.852Z,26.10
2022-10-30T13:16:43.857Z,25.90
2022-10-30T13:19:13.763Z,25.60
2022-10-30T13:21:48.995Z,25.70
2022-10-30T13:24:23.711Z,25.70
2022-10-30T13:26:56.693Z,25.30
2022-10-30T13:29:30.354Z,25.30
2022-10-30T13:32:12.773Z,24.80
2022-10-30T13:34:49.268Z,24.70
2022-10-30T13:37:23.823Z,24.80
2022-10-30T13:40:14.565Z,24.80
2022-10-30T13:42:58.076Z,24.90
2022-10-30T13:45:39.153Z,24.80
2022-10-30T13:48:16.236Z,25.00
2022-10-30T13:51:04.492Z,25.10
2022-10-30T13:53:36.064Z,24.60
2022-10-30T13:56:05.888Z,24.60
2022-10-30T13:58:39.486Z,24.50
2022-10-30T14:01:10.538Z,24.20
2022-10-30T14:03:49.625Z,24.10
2022-10-30T14:06:33.554Z,24.20
2022-10-30T14:09:09.850Z,24.10
2022-10-30T14:11:39.196Z,24.00
2022-10-30T14:14:30.287Z,23.80
2022-10-30T14:17:14.252Z,23.90
2022-10-30T14:20:15.813Z,24.00
2022-10-30T14:22:43.790Z,23.70
2022-10-30T14:25:15.219Z,23.70
2022-10-30T14:27:44.684Z,23.70
2022-10-30T14:30:20.215Z,23.60
2022-10-30T14:32:52.439Z,23.40
2022-10-30T14:35:41.184Z,23.10
2022-10-30T14:38:26.912Z,23.20
2022-10-30T14:41:39.330Z,23.10
2022-10-30T14:44:20.949Z,22.90
2022-10-30T14:47:04.930Z,22.90
2022-10-30T14:49:43.802Z,22.80
2022-10-30T14:52:33.158Z,22.70
2022-10-30T14:55:19.514Z,22.60
2022-10-30T14:57:52.098Z,22.50
2022-10-30T15:00:41.718Z,22.30
2022-10-30T15:03:20.103Z,22.20
2022-10-30T15:05:53.592Z,22.10
2022-10-30T15:08:39.248Z,22.10
2022-10-30T15:11:32.156Z,22.10
2022-10-30T15:14:03.791Z,22.00
2022-10-30T15:16:38.030Z,22.00
2022-10-30T15:19:08.618Z,22.00
2022-10-30T15:21:43.497Z,22.00
2022-10-30T15:24:16.759Z,21.90
2022-10-30T15:26:46.577Z,21.90
2022-10-30T15:29:19.336Z,21.90
2022-10-30T15:31:59.305Z,21.80
2022-10-30T15:34:29.431Z,21.80
2022-10-30T15:36:57.974Z,21.60
2022-10-30T15:39:26.828Z,21.60
2022-10-30T15:41:57.754Z,21.40
2022-10-30T15:44:29.452Z,21.20
2022-10-30T15:47:01.781Z,21.10
2022-10-30T15:49:33.241Z,20.90
2022-10-30T15:52:04.193Z,20.90
2022-10-30T15:54:34.754Z,20.70
2022-10-30T15:57:42.869Z,20.60
2022-10-30T15:59:53.692Z,20.40
2022-10-30T16:02:26.689Z,20.20
2022-10-30T16:04:55.483Z,20.00
2022-10-30T16:07:25.240Z,19.70
2022-10-30T16:09:54.758Z,19.30
2022-10-30T16:12:25.951Z,19.20
2022-10-30T16:14:54.665Z,19.10
2022-10-30T16:17:25.142Z,18.80
2022-10-30T16:19:55.478Z,18.60
2022-10-30T16:22:28.169Z,18.30
2022-10-30T16:24:57.826Z,18.30
2022-10-30T16:27:27.473Z,18.10
2022-10-30T16:29:59.109Z,18.00
2022-10-30T16:32:31.501Z,17.80
2022-10-30T16:35:01.348Z,17.70
2022-10-30T16:37:34.865Z,17.50
2022-10-30T16:40:08.142Z,17.40
2022-10-30T16:42:36.172Z,17.30
2022-10-30T16:45:45.442Z,17.20
2022-10-30T16:48:21.163Z,17.00
2022-10-30T16:50:50.361Z,16.90
2022-10-30T16:53:20.645Z,16.80
2022-10-30T16:55:48.804Z,16.60
2022-10-30T16:58:17.923Z,16.50
2022-10-30T17:00:51.294Z,16.40
2022-10-30T17:03:23.791Z,16.30
2022-10-30T17:05:59.329Z,16.30
2022-10-30T17:08:34.145Z,16.10
2022-10-30T17:11:03.854Z,15.90
2022-10-30T17:13:34.436Z,15.80
2022-10-30T17:16:21.758Z,15.60
2022-10-30T17:18:53.702Z,15.60
2022-10-30T17:21:24.429Z,15.40
2022-10-30T17:23:55.048Z,15.20
2022-10-30T17:26:23.505Z,15.10
2022-10-30T17:28:51.514Z,15.00
2022-10-30T17:31:42.995Z,14.90
2022-10-30T17:34:18.094Z,14.90
2022-10-30T17:36:47.033Z,15.00
2022-10-30T17:39:15.638Z,15.00
2022-10-30T17:41:44.194Z,14.90
2022-10-30T17:44:24.042Z,14.90
2022-10-30T17:46:52.784Z,14.80
2022-10-30T17:49:26.315Z,14.80
2022-10-30T17:51:54.567Z,14.60
2022-10-30T17:54:22.796Z,14.50
2022-10-30T17:56:51.079Z,14.30
2022-10-30T17:59:19.160Z,14.20
2022-10-30T18:01:48.944Z,14.20
2022-10-30T18:04:21.113Z,14.10
2022-10-30T18:06:51.138Z,14.10
2022-10-30T18:09:19.196Z,14.00
2022-10-30T18:11:47.153Z,13.90
2022-10-30T18:14:15.059Z,13.80
2022-10-30T18:16:43.001Z,13.90
2022-10-30T18:19:12.118Z,13.80
2022-10-30T18:21:40.499Z,13.60
2022-10-30T18:24:14.551Z,13.60
2022-10-30T18:26:43.202Z,13.50
2022-10-30T18:29:12.119Z,13.40
2022-10-30T18:31:40.937Z,13.50
2022-10-30T18:34:16.073Z,13.40
2022-10-30T18:36:44.526Z,13.50
2022-10-30T18:39:13.828Z,13.40
2022-10-30T18:41:44.120Z,13.20
2022-10-30T18:44:16.033Z,13.00
2022-10-30T18:46:44.305Z,12.90
2022-10-30T18:49:12.721Z,12.90
2022-10-30T18:51:41.040Z,13.00
2022-10-30T18:54:15.732Z,13.10
2022-10-30T18:56:44.175Z,13.10
2022-10-30T18:59:12.257Z,13.00
2022-10-30T19:01:40.517Z,12.90
2022-10-30T19:04:10.809Z,12.90
2022-10-30T19:06:39.275Z,12.80
2022-10-30T19:09:07.374Z,12.70
2022-10-30T19:11:39.415Z,12.70
2022-10-30T19:14:12.149Z,12.60
2022-10-30T19:16:40.143Z,12.50
2022-10-30T19:19:08.635Z,12.50
2022-10-30T19:21:36.961Z,12.50
2022-10-30T19:24:13.113Z,12.50
2022-10-30T19:26:42.466Z,12.40
2022-10-30T19:29:11.003Z,12.40
2022-10-30T19:31:39.056Z,12.40
2022-10-30T19:34:06.982Z,12.30
2022-10-30T19:36:36.910Z,12.20
2022-10-30T19:39:09.237Z,12.30
2022-10-30T19:41:38.603Z,12.30
2022-10-30T19:44:08.082Z,12.50
2022-10-30T19:46:36.917Z,12.50
2022-10-30T19:49:15.347Z,12.40
2022-10-30T19:51:43.369Z,12.50
2022-10-30T19:54:11.342Z,12.30
2022-10-30T19:56:39.338Z,12.30
2022-10-30T19:59:10.527Z,12.20
2022-10-30T20:01:38.719Z,12.10
2022-10-30T20:04:06.820Z,12.20
2022-10-30T20:06:34.779Z,12.20
2022-10-30T20:09:02.876Z,12.10
2022-10-30T20:11:31.876Z,12.00
2022-10-30T20:13:59.828Z,11.80
2022-10-30T20:16:31.709Z,11.80
2022-10-30T20:18:59.660Z,11.80
2022-10-30T20:21:28.793Z,11.80
2022-10-30T20:23:56.708Z,11.70
2022-10-30T20:26:30.699Z,11.70
2022-10-30T20:29:00.483Z,11.80
2022-10-30T20:31:29.787Z,11.80
2022-10-30T20:33:57.771Z,11.70
2022-10-30T20:36:26.070Z,11.60
2022-10-30T20:38:54.234Z,11.50
2022-10-30T20:41:24.268Z,11.50
2022-10-30T20:43:52.884Z,11.40
2022-10-30T20:46:21.257Z,11.40
2022-10-30T20:48:50.837Z,11.40
2022-10-30T20:51:19.302Z,11.20
2022-10-30T20:53:47.294Z,11.10
2022-10-30T20:56:16.810Z,11.10
2022-10-30T20:58:44.785Z,11.10
2022-10-30T21:01:13.971Z,11.20
2022-10-30T21:03:42.068Z,11.40
2022-10-30T21:06:13.792Z,11.40
2022-10-30T21:08:41.750Z,11.40
2022-10-30T21:11:09.730Z,11.30
2022-10-30T21:13:38.122Z,11.30
2022-10-30T21:16:09.417Z,11.30
2022-10-30T21:18:37.413Z,11.40
2022-10-30T21:21:07.833Z,11.20
2022-10-30T21:23:37.225Z,11.20
2022-10-30T21:26:07.541Z,11.20
2022-10-30T21:28:35.785Z,11.20
2022-10-30T21:31:04.673Z,11.10
2022-10-30T21:33:32.897Z,11.00
2022-10-30T21:36:10.678Z,10.90
2022-10-30T21:38:43.122Z,10.80
2022-10-30T21:41:12.164Z,10.90
2022-10-30T21:43:42.044Z,10.80
2022-10-30T21:46:11.085Z,10.80
2022-10-30T21:48:39.278Z,10.90
2022-10-30T21:51:09.588Z,10.90
2022-10-30T21:53:37.625Z,11.00
2022-10-30T21:56:09.950Z,11.00
2022-10-30T21:58:37.999Z,10.90
2022-10-30T22:01:06.906Z,10.90
2022-10-30T22:03:35.171Z,10.80
2022-10-30T22:06:07.607Z,10.70
2022-10-30T22:08:35.956Z,10.60
2022-10-30T22:11:05.625Z,10.60
2022-10-30T22:13:35.888Z,10.60
2022-10-30T22:16:05.383Z,10.70
2022-10-30T22:18:33.801Z,10.80
2022-10-30T22:21:02.583Z,10.80
2022-10-30T22:23:30.846Z,10.80
2022-10-30T22:26:00.446Z,10.80
2022-10-30T22:28:30.071Z,10.70
2022-10-30T22:31:04.166Z,10.60
2022-10-30T22:33:33.414Z,10.70
2022-10-30T22:36:05.877Z,10.60
2022-10-30T22:38:34.357Z,10.50
2022-10-30T22:41:09.807Z,10.40
2022-10-30T22:43:37.859Z,10.50
2022-10-30T22:46:07.428Z,10.50
2022-10-30T22:48:35.498Z,10.50
2022-10-30T22:51:05.516Z,10.40
2022-10-30T22:53:34.100Z,10.30
2022-10-30T22:56:11.402Z,10.30
2022-10-30T22:58:39.437Z,10.30
2022-10-30T23:01:11.742Z,10.20
2022-10-30T23:03:39.857Z,10.20
2022-10-30T23:06:08.510Z,10.20
2022-10-30T23:08:36.755Z,10.20
2022-10-30T23:11:05.861Z,10.30
2022-10-30T23:13:33.864Z,10.30
2022-10-30T23:16:02.831Z,10.30
2022-10-30T23:18:32.864Z,10.30
2022-10-30T23:21:02.862Z,10.30
2022-10-30T23:23:30.845Z,10.30
2022-10-30T23:26:03.610Z,10.30
2022-10-30T23:28:31.577Z,10.30
2022-10-30T23:30:59.541Z,10.30
2022-10-30T23:33:27.516Z,10.20
2022-10-30T23:36:00.747Z,10.10
2022-10-30T23:38:29.448Z,10.00
2022-10-30T23:40:57.438Z,9.90
2022-10-30T23:43:25.655Z,10.00
2022-10-30T23:45:53.607Z,9.90
2022-10-30T23:48:21.659Z,9.90
2022-10-30T23:50:49.638Z,9.90
2022-10-30T23:53:19.018Z,9.90
2022-10-30T23:55:53.693Z,9.90
2022-10-30T23:58:21.936Z,9.80
